Time;durP1;ratioP1;P1;durP2;ratioP2;P2;SDS_P1;SDS_P2;PMS_P1;PMS_P2;Temp;Humidity;BMP_temperature;BMP_pressure;BME280_temperature;BME280_humidity;BME280_pressure;Samples;Min_cycle;Max_cycle;Signal;HPM_P1;HPM_P2
2023/12/22 00:02:05;;;;;;;28.48;3.70;;;6.40;99.90;;;;;;4998855;28;20641;-75
2023/12/22 00:04:33;;;;;;;26.65;3.65;;;6.30;99.90;;;;;;4990362;28;20155;-75
2023/12/22 00:06:59;;;;;;;23.65;3.83;;;6.30;99.90;;;;;;4994038;28;20029;-75
2023/12/22 00:09:24;;;;;;;30.75;3.63;;;6.30;99.90;;;;;;4994169;28;20482;-75
2023/12/22 00:11:50;;;;;;;21.27;3.40;;;6.20;99.90;;;;;;4994832;28;20104;-75
2023/12/22 00:14:15;;;;;;;24.15;3.92;;;6.20;99.90;;;;;;4993101;28;20037;-75
2023/12/22 00:16:41;;;;;;;27.13;3.78;;;6.30;99.90;;;;;;4994069;28;20067;-75
2023/12/22 00:19:06;;;;;;;37.60;3.90;;;6.30;99.90;;;;;;4994199;28;20587;-75
2023/12/22 00:21:32;;;;;;;21.75;2.88;;;6.20;99.90;;;;;;4994406;28;20026;-75
2023/12/22 00:23:58;;;;;;;25.77;3.55;;;6.30;99.90;;;;;;4992170;28;21634;-75
2023/12/22 00:26:26;;;;;;;22.13;3.22;;;6.30;99.90;;;;;;4994317;28;20111;-75
2023/12/22 00:28:51;;;;;;;;;;;6.30;99.90;;;;;;4993663;28;20040;-75
2023/12/22 00:31:19;;;;;;;24.85;2.75;;;6.20;99.90;;;;;;4996546;28;19920;-75
2023/12/22 00:33:45;;;;;;;15.93;2.45;;;6.30;99.90;;;;;;4994560;28;20088;-75
2023/12/22 00:36:13;;;;;;;21.85;3.33;;;6.30;99.90;;;;;;4994224;28;20411;-75
2023/12/22 00:38:38;;;;;;;;;;;6.30;99.90;;;;;;4994391;28;20260;-75
2023/12/22 00:41:06;;;;;;;22.00;2.90;;;6.30;99.90;;;;;;4991849;28;19980;-74
2023/12/22 00:43:32;;;;;;;21.95;3.08;;;6.30;99.90;;;;;;4993791;28;20073;-75
2023/12/22 00:45:57;;;;;;;24.63;3.40;;;6.30;99.90;;;;;;4992131;28;20124;-75
2023/12/22 00:48:23;;;;;;;22.35;3.60;;;6.20;99.90;;;;;;4985242;23;20528;-75
2023/12/22 00:50:48;;;;;;;41.05;3.30;;;6.30;99.90;;;;;;4975656;28;20088;-75
2023/12/22 00:53:16;;;;;;;28.67;4.05;;;6.20;99.90;;;;;;4977943;28;20030;-75
2023/12/22 00:55:42;;;;;;;;;;;6.20;99.90;;;;;;4975958;28;20808;-75
2023/12/22 00:58:07;;;;;;;18.40;2.80;;;6.30;99.90;;;;;;4977494;28;19975;-75
2023/12/22 01:00:38;;;;;;;16.40;2.55;;;6.20;99.90;;;;;;4979642;28;20034;-75
2023/12/22 01:03:06;;;;;;;18.80;3.00;;;6.20;99.90;;;;;;4981715;28;20026;-75
2023/12/22 01:05:34;;;;;;;27.10;3.20;;;6.20;99.90;;;;;;4976805;28;20516;-75
2023/12/22 01:08:00;;;;;;;;;;;6.30;99.90;;;;;;4980976;28;20278;-75
2023/12/22 01:10:25;;;;;;;19.77;3.15;;;6.30;99.90;;;;;;4978537;28;19924;-75
2023/12/22 01:12:51;;;;;;;18.80;3.08;;;6.20;99.90;;;;;;4978095;28;20951;-75
2023/12/22 01:15:16;;;;;;;30.98;3.90;;;6.20;99.90;;;;;;4976025;28;20065;-75
2023/12/22 01:17:42;;;;;;;13.73;3.40;;;6.20;99.90;;;;;;4976923;28;20205;-75
2023/12/22 01:20:08;;;;;;;25.70;3.75;;;6.20;99.90;;;;;;4976223;28;20154;-75
2023/12/22 01:22:38;;;;;;;20.75;2.75;;;6.20;99.90;;;;;;4977318;28;20761;-75
2023/12/22 01:25:04;;;;;;;13.82;2.35;;;6.20;99.90;;;;;;4976898;28;20318;-71
2023/12/22 01:27:30;;;;;;;22.50;2.40;;;6.20;99.90;;;;;;4978940;28;20033;-75
2023/12/22 01:29:56;;;;;;;22.73;3.88;;;6.10;99.90;;;;;;4976236;28;20061;-75
2023/12/22 01:32:21;;;;;;;23.60;3.33;;;6.10;99.90;;;;;;4979140;28;20152;-75
2023/12/22 01:34:49;;;;;;;15.77;2.75;;;6.20;99.90;;;;;;4975437;28;20038;-75
2023/12/22 01:37:15;;;;;;;26.25;2.90;;;6.10;99.90;;;;;;4978080;28;20148;-75
2023/12/22 01:39:40;;;;;;;20.73;3.10;;;6.10;99.90;;;;;;4974987;28;20088;-75
2023/12/22 01:42:06;;;;;;;16.95;2.55;;;6.00;99.90;;;;;;4978832;28;20424;-75
2023/12/22 01:44:39;;;;;;;11.43;2.50;;;6.00;99.90;;;;;;4990672;28;20070;-75
2023/12/22 01:47:07;;;;;;;30.95;3.72;;;5.90;99.90;;;;;;4977278;28;20092;-75
2023/12/22 01:49:33;;;;;;;16.23;2.42;;;5.90;99.90;;;;;;4976560;28;20062;-75
2023/12/22 01:51:59;;;;;;;16.65;2.45;;;5.90;99.90;;;;;;4977939;28;20034;-75
2023/12/22 01:54:26;;;;;;;17.70;2.47;;;5.90;99.90;;;;;;4975880;28;20392;-75
2023/12/22 01:56:52;;;;;;;14.75;2.65;;;5.90;99.90;;;;;;4978435;28;20126;-75
2023/12/22 01:59:20;;;;;;;10.52;1.65;;;5.80;99.90;;;;;;4975991;28;20038;-75
2023/12/22 02:01:46;;;;;;;20.45;3.03;;;5.70;99.90;;;;;;4978576;28;20500;-75
2023/12/22 02:04:15;;;;;;;25.85;3.03;;;5.70;99.90;;;;;;4979963;28;20038;-75
2023/12/22 02:06:42;;;;;;;17.20;2.70;;;5.60;99.90;;;;;;4980731;28;21314;-75
2023/12/22 02:09:08;;;;;;;12.23;2.28;;;5.70;99.90;;;;;;4977200;28;20515;-75
2023/12/22 02:11:38;;;;;;;12.70;2.00;;;5.70;99.90;;;;;;4979041;28;20034;-75
2023/12/22 02:14:03;;;;;;;15.90;2.10;;;5.70;99.90;;;;;;4977691;28;20030;-75
2023/12/22 02:16:40;;;;;;;15.45;2.28;;;5.70;99.90;;;;;;4977957;28;20049;-75
2023/12/22 02:19:35;;;;;;;22.73;2.60;;;5.70;99.90;;;;;;4976137;28;20033;-75
2023/12/22 02:22:02;;;;;;;22.92;3.00;;;5.80;99.90;;;;;;4977055;28;20129;-75
2023/12/22 02:24:30;;;;;;;17.70;3.42;;;5.80;99.90;;;;;;4975254;28;20063;-75
2023/12/22 02:27:05;;;;;;;26.75;3.38;;;5.80;99.90;;;;;;4978582;28;20451;-75
2023/12/22 02:29:45;;;;;;;15.38;2.70;;;5.90;99.90;;;;;;4974361;28;20845;-75
2023/12/22 02:32:18;;;;;;;17.40;2.30;;;5.90;99.90;;;;;;4978227;28;20103;-75
2023/12/22 02:34:52;;;;;;;25.95;2.60;;;5.90;99.90;;;;;;4975841;28;20033;-75
2023/12/22 02:37:18;;;;;;;10.25;1.42;;;5.90;99.90;;;;;;4980288;28;20483;-75
2023/12/22 02:39:44;;;;;;;12.68;1.75;;;5.90;99.90;;;;;;4975140;28;20049;-75
2023/12/22 02:42:10;;;;;;;11.50;1.90;;;5.90;99.90;;;;;;4978170;28;20034;-75
2023/12/22 02:44:37;;;;;;;11.00;1.70;;;5.80;99.90;;;;;;4975523;28;20469;-75
2023/12/22 02:47:03;;;;;;;13.40;1.42;;;5.80;99.90;;;;;;4977639;28;20609;-75
2023/12/22 02:49:29;;;;;;;10.32;1.83;;;5.60;99.90;;;;;;4975369;28;20042;-75
2023/12/22 02:51:54;;;;;;;15.95;1.80;;;5.50;99.90;;;;;;4976704;28;20034;-75
2023/12/22 02:54:20;;;;;;;14.15;1.98;;;5.50;99.90;;;;;;4974829;28;20128;-75
2023/12/22 02:56:46;;;;;;;17.38;1.85;;;5.40;99.90;;;;;;4976184;28;20069;-75
2023/12/22 02:59:12;;;;;;;6.88;1.00;;;5.40;99.90;;;;;;4976032;28;20030;-75
2023/12/22 03:01:38;;;;;;;16.63;1.58;;;5.40;99.90;;;;;;4977146;28;20742;-75
2023/12/22 03:04:03;;;;;;;11.05;1.42;;;5.50;99.90;;;;;;4976423;28;20034;-75
2023/12/22 03:06:32;;;;;;;7.85;1.25;;;5.40;99.90;;;;;;4976985;28;21960;-75
2023/12/22 03:08:57;;;;;;;10.13;1.65;;;5.40;99.90;;;;;;4975840;28;20030;-75
2023/12/22 03:11:23;;;;;;;11.77;1.50;;;5.40;99.90;;;;;;4982291;28;20569;-75
2023/12/22 03:13:48;;;;;;;12.40;1.10;;;5.40;99.90;;;;;;4973917;28;20111;-75
2023/12/22 03:16:14;;;;;;;13.63;1.88;;;5.40;99.90;;;;;;4976506;28;20033;-75
2023/12/22 03:18:41;;;;;;;6.93;1.48;;;5.40;99.90;;;;;;4973312;28;20033;-75
2023/12/22 03:21:07;;;;;;;13.45;1.70;;;5.50;99.90;;;;;;4975842;28;20631;-75
2023/12/22 03:23:33;;;;;;;14.80;1.77;;;5.60;99.90;;;;;;4974207;28;20054;-75
2023/12/22 03:26:03;;;;;;;10.27;1.63;;;5.60;99.90;;;;;;4972651;28;20387;-75
2023/12/22 03:28:33;;;;;;;14.32;1.52;;;5.60;99.90;;;;;;4975964;28;20065;-75
2023/12/22 03:30:59;;;;;;;14.45;1.85;;;5.50;99.90;;;;;;4973188;28;20038;-75
2023/12/22 03:33:24;;;;;;;17.90;1.90;;;5.40;99.90;;;;;;4975769;28;20392;-75
2023/12/22 03:35:50;;;;;;;19.08;1.88;;;5.40;99.90;;;;;;4974547;28;20034;-75
2023/12/22 03:38:15;;;;;;;12.50;1.83;;;5.40;99.90;;;;;;4975630;28;20514;-75
2023/12/22 03:40:41;;;;;;;18.00;2.90;;;5.40;99.90;;;;;;4976618;28;20030;-75
2023/12/22 03:43:07;;;;;;;18.92;1.83;;;5.40;99.90;;;;;;4980190;28;20030;-75
2023/12/22 03:45:32;;;;;;;11.85;2.35;;;5.50;99.90;;;;;;4994029;28;20501;-75
2023/12/22 03:48:02;;;;;;;18.60;2.25;;;5.50;99.90;;;;;;4979560;28;20504;-75
2023/12/22 03:50:28;;;;;;;18.30;2.92;;;5.50;99.90;;;;;;4976886;28;20034;-75
2023/12/22 03:52:53;;;;;;;18.15;3.35;;;5.50;99.90;;;;;;4979129;28;20033;-75
2023/12/22 03:55:19;;;;;;;20.23;2.78;;;5.50;99.90;;;;;;4980521;28;20083;-75
2023/12/22 03:57:44;;;;;;;15.52;3.47;;;5.50;99.90;;;;;;4979736;28;20037;-75
2023/12/22 04:00:11;;;;;;;29.02;3.08;;;5.50;99.90;;;;;;4977197;28;20214;-75
2023/12/22 04:02:36;;;;;;;21.60;2.05;;;5.50;99.90;;;;;;4980129;28;20030;-75
2023/12/22 04:05:02;;;;;;;17.40;2.25;;;5.50;99.90;;;;;;4980376;28;20745;-75
2023/12/22 04:07:28;;;;;;;22.50;2.40;;;5.50;99.90;;;;;;4982112;28;20029;-76
2023/12/22 04:09:56;;;;;;;25.23;2.38;;;5.50;99.90;;;;;;4981487;28;20662;-75
2023/12/22 04:12:24;;;;;;;;;;;5.50;99.90;;;;;;4980807;28;20584;-75
2023/12/22 04:14:49;;;;;;;8.40;1.80;;;5.50;99.90;;;;;;4978919;28;20253;-75
2023/12/22 04:17:17;;;;;;;9.15;2.05;;;5.50;99.90;;;;;;4980484;28;20741;-75
2023/12/22 04:19:43;;;;;;;13.15;2.30;;;5.50;99.90;;;;;;4978499;28;20109;-75
2023/12/22 04:22:08;;;;;;;12.15;1.85;;;5.40;99.90;;;;;;4979985;28;20026;-75
2023/12/22 04:24:34;;;;;;;13.95;2.15;;;5.40;99.90;;;;;;4976930;28;20062;-75
2023/12/22 04:27:02;;;;;;;20.85;2.30;;;5.40;99.90;;;;;;4978306;28;20062;-75
2023/12/22 04:29:27;;;;;;;;;;;5.40;99.90;;;;;;4992224;28;20070;-75
2023/12/22 04:31:53;;;;;;;29.55;2.58;;;5.40;99.90;;;;;;4979610;28;19917;-75
2023/12/22 04:34:18;;;;;;;21.48;2.88;;;5.40;99.90;;;;;;4980848;28;20120;-75
2023/12/22 04:36:46;;;;;;;22.30;2.92;;;5.40;99.90;;;;;;4977013;28;20397;-75
2023/12/22 04:39:14;;;;;;;36.30;3.72;;;5.40;99.90;;;;;;4992530;28;20456;-75
2023/12/22 04:41:40;;;;;;;;;;;5.40;99.90;;;;;;4980119;28;20036;-75
2023/12/22 04:44:10;;;;;;;22.25;3.83;;;5.30;99.90;;;;;;4978189;28;21843;-75
2023/12/22 04:46:36;;;;;;;17.95;3.08;;;5.30;99.90;;;;;;4977947;28;20129;-75
2023/12/22 04:49:01;;;;;;;20.00;2.35;;;5.30;99.90;;;;;;4981113;28;20115;-75
2023/12/22 04:51:30;;;;;;;12.85;2.00;;;5.30;99.90;;;;;;4978620;28;20288;-75
2023/12/22 04:53:55;;;;;;;18.48;1.85;;;5.20;99.90;;;;;;4975989;28;20034;-75
2023/12/22 04:56:23;;;;;;;11.93;2.25;;;5.20;99.90;;;;;;4979103;28;20030;-75
2023/12/22 04:58:50;;;;;;;8.30;1.83;;;5.10;99.90;;;;;;4977844;28;20061;-75
2023/12/22 05:01:15;;;;;;;11.35;1.77;;;5.00;99.90;;;;;;4978656;28;21604;-75
2023/12/22 05:03:41;;;;;;;21.77;2.65;;;4.90;99.90;;;;;;4976680;28;20115;-75
2023/12/22 05:06:07;;;;;;;14.05;2.10;;;5.00;99.90;;;;;;4976712;28;20026;-75
2023/12/22 05:08:34;;;;;;;17.70;2.67;;;5.00;99.90;;;;;;4980600;28;20029;-75
2023/12/22 05:10:59;;;;;;;18.40;2.13;;;5.00;99.90;;;;;;4976887;28;20030;-75
2023/12/22 05:13:25;;;;;;;14.88;2.30;;;5.00;99.90;;;;;;4976532;28;20049;-75
2023/12/22 05:15:53;;;;;;;;;;;5.00;99.90;;;;;;4976840;28;20119;-75
2023/12/22 05:18:18;;;;;;;;;;;5.10;99.90;;;;;;4981246;28;19917;-75
2023/12/22 05:20:46;;;;;;;;;;;5.20;99.90;;;;;;4976738;28;19928;-75
2023/12/22 05:23:12;;;;;;;;;;;5.20;99.90;;;;;;4978221;28;20235;-75
2023/12/22 05:25:37;;;;;;;;;;;5.10;99.90;;;;;;4976042;28;20371;-75
2023/12/22 05:28:03;;;;;;;;;;;5.20;99.90;;;;;;4978753;28;20228;-75
2023/12/22 05:30:28;;;;;;;;;;;5.20;99.90;;;;;;4976822;28;19917;-75
2023/12/22 05:32:54;;;;;;;;;;;5.20;99.90;;;;;;4979472;28;20375;-75
2023/12/22 05:35:22;;;;;;;;;;;5.30;99.90;;;;;;4981201;28;19917;-75
2023/12/22 05:37:50;;;;;;;;;;;5.40;99.90;;;;;;4977700;28;20056;-75
2023/12/22 05:40:16;;;;;;;;;;;5.40;99.90;;;;;;4975229;28;19922;-75
2023/12/22 05:42:43;;;;;;;;;;;5.40;99.90;;;;;;4978366;28;20141;-75
2023/12/22 05:45:11;;;;;;;;;;;5.40;99.90;;;;;;4976377;28;19931;-75
2023/12/22 05:47:36;;;;;;;;;;;5.40;99.90;;;;;;4980085;28;20476;-75
2023/12/22 05:50:04;;;;;;;;;;;5.40;99.90;;;;;;4977498;28;19961;-75
2023/12/22 05:52:30;;;;;;;;;;;5.40;99.90;;;;;;4979329;28;20277;-75
2023/12/22 05:54:55;;;;;;;;;;;5.50;99.90;;;;;;4974717;28;19967;-75
2023/12/22 05:57:21;;;;;;;;;;;5.50;99.90;;;;;;4976641;28;19921;-75
2023/12/22 05:59:46;;;;;;;;;;;5.50;99.90;;;;;;4975825;28;19924;-74
2023/12/22 06:02:13;;;;;;;;;;;5.50;99.90;;;;;;4977280;28;19918;-75
2023/12/22 06:04:38;;;;;;;;;;;5.60;99.90;;;;;;4975645;28;20356;-75
2023/12/22 06:07:04;;;;;;;;;;;5.60;99.90;;;;;;4976781;28;19928;-75
2023/12/22 06:09:30;;;;;;;;;;;5.60;99.90;;;;;;4976428;28;19921;-75
2023/12/22 06:11:55;;;;;;;;;;;5.60;99.90;;;;;;4978782;28;21851;-75
2023/12/22 06:14:21;;;;;;;;;;;5.70;99.90;;;;;;4975906;28;19925;-75
2023/12/22 06:16:50;;;;;;;;;;;5.60;99.90;;;;;;4978757;28;19968;-75
2023/12/22 06:19:16;;;;;;;;;;;5.60;99.90;;;;;;4976813;28;20160;-75
2023/12/22 06:21:42;;;;;;;;;;;5.50;99.90;;;;;;4976871;28;19961;-75
2023/12/22 06:24:08;;;;;;;;;;;5.50;99.90;;;;;;4978725;28;20588;-75
2023/12/22 06:26:33;;;;;;;;;;;5.50;99.90;;;;;;4976560;28;20363;-75
2023/12/22 06:28:59;;;;;;;;;;;5.40;99.90;;;;;;4978391;28;19940;-75
2023/12/22 06:31:25;;;;;;;;;;;5.10;99.90;;;;;;4978383;28;20208;-75
2023/12/22 06:33:53;;;;;;;;;;;5.20;99.90;;;;;;4974808;28;19917;-75
2023/12/22 06:36:22;;;;;;;;;;;5.20;99.90;;;;;;4980200;28;19917;-75
2023/12/22 06:38:47;;;;;;;;;;;5.20;99.90;;;;;;4977791;28;20027;-75
2023/12/22 06:41:25;;;;;;;;;;;5.20;99.90;;;;;;4991621;28;19917;-75
2023/12/22 06:43:51;;;;;;;;;;;5.10;99.90;;;;;;4977706;28;19917;-75
2023/12/22 06:46:17;;;;;;;;;;;5.10;99.90;;;;;;4986575;23;19925;-75
2023/12/22 06:48:42;;;;;;;;;;;5.10;99.90;;;;;;4989956;28;20124;-75
2023/12/22 06:51:16;;;;;;;;;;;5.10;99.90;;;;;;4973614;28;19921;-75
2023/12/22 06:53:42;;;;;;;;;;;5.10;99.90;;;;;;4987518;28;20329;-75
2023/12/22 06:56:14;;;;;;;;;;;5.10;99.90;;;;;;4972160;28;20360;-75
2023/12/22 06:58:40;;;;;;;;;;;5.20;99.90;;;;;;4977054;28;19918;-76
2023/12/22 07:01:05;;;;;;;;;;;5.20;99.90;;;;;;4979542;28;19966;-75
2023/12/22 07:03:31;;;;;;;;;;;5.10;99.90;;;;;;4973941;28;20381;-77
2023/12/22 07:05:56;;;;;;;;;;;5.10;99.90;;;;;;4973723;28;20012;-77
2023/12/22 07:08:22;;;;;;;;;;;5.20;99.90;;;;;;4975131;28;19925;-76
2023/12/22 07:10:47;;;;;;;;;;;5.10;99.90;;;;;;4972862;28;19921;-77
2023/12/22 07:13:13;;;;;;;;;;;5.20;99.90;;;;;;4970927;28;20031;-76
2023/12/22 07:15:38;;;;;;;;;;;5.30;99.90;;;;;;4970799;28;20008;-76
2023/12/22 07:18:04;;;;;;;;;;;5.30;99.90;;;;;;4973090;28;19945;-76
2023/12/22 07:20:32;;;;;;;;;;;5.20;99.90;;;;;;4986328;28;19922;-76
2023/12/22 07:23:00;;;;;;;;;;;5.30;99.90;;;;;;4973350;28;19918;-77
2023/12/22 07:25:25;;;;;;;;;;;5.30;99.90;;;;;;4974103;28;20656;-77
2023/12/22 07:27:51;;;;;;;;;;;5.30;99.90;;;;;;4975526;28;19957;-77
2023/12/22 07:30:17;;;;;;;;;;;5.40;99.90;;;;;;4974374;28;20291;-77
2023/12/22 07:32:44;;;;;;;;;;;5.30;99.90;;;;;;4974001;28;19917;-76
2023/12/22 07:35:09;;;;;;;;;;;5.20;99.90;;;;;;4971685;28;19918;-76
2023/12/22 07:37:35;;;;;;;;;;;5.00;99.90;;;;;;4974052;28;20291;-77
2023/12/22 07:40:00;;;;;;;;;;;5.00;99.90;;;;;;4976254;28;21801;-74
2023/12/22 07:42:26;;;;;;;;;;;5.00;99.90;;;;;;4975493;28;20292;-76
2023/12/22 07:44:51;;;;;;;;;;;4.90;99.90;;;;;;4976277;28;20290;-77
2023/12/22 07:47:17;;;;;;;;;;;4.90;99.90;;;;;;4980517;28;20434;-78
2023/12/22 07:49:42;;;;;;;;;;;4.90;99.90;;;;;;4990211;28;19924;-78
2023/12/22 07:52:10;;;;;;;;;;;5.00;99.90;;;;;;4987606;28;19996;-78
2023/12/22 07:54:38;;;;;;;;;;;5.10;99.90;;;;;;5009740;28;20459;-77
2023/12/22 07:57:04;;;;;;;;;;;5.10;99.90;;;;;;4988721;28;19921;-75
2023/12/22 07:59:29;;;;;;;;;;;5.20;99.90;;;;;;4986266;28;19921;-76
2023/12/22 08:01:54;;;;;;;;;;;5.20;99.90;;;;;;4984129;28;19956;-77
2023/12/22 08:04:20;;;;;;;;;;;5.20;99.90;;;;;;4973451;28;20396;-78
2023/12/22 08:06:46;;;;;;;;;;;5.20;99.90;;;;;;4980348;28;19918;-77
2023/12/22 08:09:12;;;;;;;;;;;5.20;99.90;;;;;;4975460;28;20349;-72
2023/12/22 08:11:37;;;;;;;;;;;5.20;99.90;;;;;;4980637;28;19932;-79
2023/12/22 08:14:03;;;;;;;;;;;5.20;99.90;;;;;;4985200;28;19918;-78
2023/12/22 08:16:28;;;;;;;;;;;5.20;99.90;;;;;;4976419;28;19940;-77
2023/12/22 08:18:54;;;;;;;;;;;5.30;99.90;;;;;;4979633;28;19925;-77
2023/12/22 08:21:20;;;;;;;;;;;5.40;99.90;;;;;;4973428;28;20243;-78
2023/12/22 08:23:45;;;;;;;;;;;5.40;99.90;;;;;;4974423;28;20403;-77
2023/12/22 08:26:11;;;;;;;;;;;5.40;99.90;;;;;;4975274;28;19924;-77
2023/12/22 08:28:38;;;;;;;;;;;5.50;99.90;;;;;;4974978;28;19909;-77
2023/12/22 08:31:03;;;;;;;;;;;5.70;99.90;;;;;;4974464;28;19917;-77
2023/12/22 08:33:31;;;;;;;;;;;5.70;99.90;;;;;;4987768;28;19976;-77
2023/12/22 08:35:57;;;;;;;;;;;5.80;99.90;;;;;;4993326;28;19913;-77
2023/12/22 08:38:22;;;;;;;;;;;5.90;99.90;;;;;;4991999;28;20383;-76
2023/12/22 08:40:48;;;;;;;;;;;6.00;99.90;;;;;;4991259;28;19921;-77
2023/12/22 08:43:14;;;;;;;;;;;6.00;99.90;;;;;;4988646;28;20651;-76
2023/12/22 08:45:42;;;;;;;;;;;6.10;99.90;;;;;;4988457;28;21232;-76
2023/12/22 08:48:07;;;;;;;;;;;6.20;99.90;;;;;;4990102;28;19947;-75
2023/12/22 08:50:34;;;;;;;;;;;6.20;99.90;;;;;;4982767;28;19924;-76
2023/12/22 08:53:00;;;;;;;;;;;6.20;99.90;;;;;;4975748;28;20406;-76
2023/12/22 08:55:25;;;;;;;;;;;6.30;99.90;;;;;;4988754;28;20064;-76
2023/12/22 08:57:50;;;;;;;;;;;6.30;99.90;;;;;;4992899;28;19922;-76
2023/12/22 09:00:16;;;;;;;;;;;6.30;99.90;;;;;;4975999;28;19936;-77
2023/12/22 09:02:41;;;;;;;;;;;6.30;99.90;;;;;;4975775;28;20074;-75
2023/12/22 09:05:07;;;;;;;;;;;6.30;99.90;;;;;;4976192;28;20995;-75
2023/12/22 09:07:33;;;;;;;;;;;6.40;99.90;;;;;;4985372;28;19918;-76
2023/12/22 09:09:58;;;;;;;;;;;6.40;99.90;;;;;;4991095;28;19913;-75
2023/12/22 09:12:24;;;;;;;;;;;6.40;99.90;;;;;;4993998;28;20387;-76
2023/12/22 09:14:50;;;;;;;;;;;6.40;99.90;;;;;;4989556;28;20204;-76
2023/12/22 09:17:18;;;;;;;;;;;6.40;99.90;;;;;;4989109;28;19926;-76
2023/12/22 09:19:43;;;;;;;;;;;6.50;99.90;;;;;;4990393;28;19917;-76
2023/12/22 09:22:08;;;;;;;;;;;6.50;99.90;;;;;;4989599;28;19963;-75
2023/12/22 09:24:34;;;;;;;;;;;6.50;99.90;;;;;;4999332;28;19929;-77
2023/12/22 09:27:02;;;;;;;;;;;6.60;99.90;;;;;;4991355;28;19917;-76
2023/12/22 09:29:35;;;;;;;;;;;6.60;99.90;;;;;;4990135;28;20368;-76
2023/12/22 09:32:01;;;;;;;;;;;6.70;99.90;;;;;;4990151;28;20555;-76
2023/12/22 09:34:27;;;;;;;;;;;6.70;99.90;;;;;;4985375;28;19996;-78
2023/12/22 09:36:56;;;;;;;;;;;6.70;99.90;;;;;;4992595;28;20085;-77
2023/12/22 09:39:21;;;;;;;;;;;6.80;99.90;;;;;;4987416;28;19918;-77
2023/12/22 09:41:48;;;;;;;;;;;6.80;99.90;;;;;;4976016;28;19969;-77
2023/12/22 09:44:14;;;;;;;;;;;6.80;99.90;;;;;;4974314;28;19917;-77
2023/12/22 09:46:40;;;;;;;;;;;6.80;99.90;;;;;;4976632;28;19928;-77
2023/12/22 09:49:08;;;;;;;;;;;6.80;99.90;;;;;;4976747;28;19917;-77
2023/12/22 09:51:34;;;;;;;;;;;6.80;99.90;;;;;;4974082;28;19940;-77
2023/12/22 09:54:03;;;;;;;;;;;6.80;99.90;;;;;;4974364;28;20363;-77
2023/12/22 09:56:29;;;;;;;;;;;6.80;99.90;;;;;;4975205;28;20068;-77
2023/12/22 09:58:56;;;;;;;;;;;6.80;99.90;;;;;;4974352;28;19917;-77
2023/12/22 10:01:24;;;;;;;;;;;6.80;99.90;;;;;;4977511;28;19921;-77
2023/12/22 10:03:50;;;;;;;;;;;6.70;99.90;;;;;;4976839;28;19921;-77
2023/12/22 10:06:16;;;;;;;;;;;6.80;99.90;;;;;;4976587;28;20012;-77
2023/12/22 10:08:43;;;;;;;;;;;6.80;99.90;;;;;;4972999;28;19913;-77
2023/12/22 10:11:11;;;;;;;;;;;6.70;99.90;;;;;;4975265;28;19914;-77
2023/12/22 10:13:40;;;;;;;;;;;6.70;99.90;;;;;;4976393;28;19917;-77
2023/12/22 10:16:06;;;;;;;;;;;6.70;99.90;;;;;;4977104;28;19918;-77
2023/12/22 10:18:32;;;;;;;;;;;6.70;99.90;;;;;;4975002;28;19953;-77
2023/12/22 10:20:58;;;;;;;;;;;6.80;99.90;;;;;;4988323;28;20490;-77
2023/12/22 10:23:23;;;;;;;;;;;6.80;99.90;;;;;;4982116;28;19925;-76
2023/12/22 10:25:51;;;;;;;;;;;6.70;99.90;;;;;;4974327;28;19917;-77
2023/12/22 10:28:16;;;;;;;;;;;6.70;99.90;;;;;;4977386;28;19924;-77
2023/12/22 10:30:44;;;;;;;;;;;6.70;99.90;;;;;;4984385;28;19957;-77
2023/12/22 10:33:11;;;;;;;;;;;6.70;99.90;;;;;;4975875;28;19917;-78
2023/12/22 10:35:38;;;;;;;;;;;6.70;99.90;;;;;;4983447;28;19913;-76
2023/12/22 10:38:04;;;;;;;;;;;6.60;99.90;;;;;;4977142;28;19917;-81
2023/12/22 10:40:29;;;;;;;;;;;6.60;99.90;;;;;;4974876;28;19921;-76
2023/12/22 10:42:55;;;;;;;;;;;6.50;99.90;;;;;;4977925;28;19917;-76
2023/12/22 10:45:23;;;;;;;;;;;6.50;99.90;;;;;;4978476;28;19971;-76
2023/12/22 10:47:51;;;;;;;;;;;6.50;99.90;;;;;;4992070;28;19922;-76
2023/12/22 10:50:21;;;;;;;;;;;6.40;99.90;;;;;;4994564;28;20148;-77
2023/12/22 10:52:50;;;;;;;;;;;6.40;99.90;;;;;;4988904;28;19917;-76
2023/12/22 10:55:16;;;;;;;;;;;6.40;99.90;;;;;;4991042;28;19924;-76
2023/12/22 10:57:41;;;;;;;;;;;6.40;99.90;;;;;;4990300;28;19918;-76
2023/12/22 11:00:07;;;;;;;;;;;6.40;99.90;;;;;;4981869;28;19928;-76
2023/12/22 11:02:34;;;;;;;;;;;6.30;99.90;;;;;;4975986;28;20520;-76
2023/12/22 11:05:05;;;;;;;;;;;6.30;99.90;;;;;;4975839;28;20371;-76
2023/12/22 11:07:32;;;;;;;;;;;6.30;99.90;;;;;;4975807;28;20331;-76
2023/12/22 11:10:01;;;;;;;;;;;6.20;99.90;;;;;;4974697;28;19971;-76
2023/12/22 11:12:28;;;;;;;;;;;6.30;99.90;;;;;;4977462;28;19925;-76
2023/12/22 11:14:55;;;;;;;;;;;6.20;99.90;;;;;;4985989;28;20387;-77
2023/12/22 11:17:21;;;;;;;;;;;6.20;99.90;;;;;;4987431;28;21233;-76
2023/12/22 11:19:53;;;;;;;;;;;6.30;99.90;;;;;;4990183;28;19921;-76
2023/12/22 11:22:19;;;;;;;;;;;6.30;99.90;;;;;;4990122;28;19913;-76
2023/12/22 11:24:46;;;;;;;;;;;6.30;99.90;;;;;;4984307;28;19925;-76
2023/12/22 11:27:12;;;;;;;;;;;6.40;99.90;;;;;;4978234;28;20396;-76
2023/12/22 11:29:39;;;;;;;;;;;6.40;99.90;;;;;;4973954;28;19917;-76
2023/12/22 11:32:10;;;;;;;;;;;6.50;99.90;;;;;;4975269;28;20391;-74
2023/12/22 11:34:36;;;;;;;;;;;6.50;99.90;;;;;;4972516;28;20872;-75
2023/12/22 11:37:03;;;;;;;;;;;6.60;99.90;;;;;;4973785;28;19973;-74
2023/12/22 11:39:29;;;;;;;;;;;6.60;99.90;;;;;;4977681;28;19924;-74
2023/12/22 11:41:57;;;;;;;;;;;6.60;99.90;;;;;;4986818;28;19953;-74
2023/12/22 11:44:23;;;;;;;;;;;6.60;99.90;;;;;;4983673;28;19917;-74
2023/12/22 11:46:48;;;;;;;;;;;6.70;99.90;;;;;;4982216;28;20517;-74
2023/12/22 11:49:14;;;;;;;;;;;6.80;99.90;;;;;;4974871;28;20016;-75
2023/12/22 11:51:39;;;;;;;;;;;6.80;99.90;;;;;;4975414;28;19968;-75
2023/12/22 11:54:25;;;;;;;;;;;6.90;99.90;;;;;;4970119;28;19921;-75
2023/12/22 11:56:50;;;;;;;;;;;6.90;99.90;;;;;;4972388;28;20325;-75
2023/12/22 11:59:16;;;;;;;;;;;7.00;99.90;;;;;;4972404;28;19999;-75
2023/12/22 12:01:42;;;;;;;;;;;7.00;99.90;;;;;;4974626;28;20376;-76
2023/12/22 12:04:10;;;;;;;;;;;7.00;99.90;;;;;;4974268;28;19921;-75
2023/12/22 12:06:37;;;;;;;;;;;7.10;99.90;;;;;;4979909;28;19919;-76
2023/12/22 12:09:08;;;;;;;;;;;7.10;99.90;;;;;;4974810;28;19917;-75
2023/12/22 12:11:59;;;;;;;;;;;7.10;99.90;;;;;;4977046;28;20695;-75
2023/12/22 12:14:39;;;;;;;;;;;7.10;99.90;;;;;;4976896;28;19925;-76
2023/12/22 12:17:09;;;;;;;;;;;7.20;99.90;;;;;;4987320;28;19921;-76
2023/12/22 12:19:37;;;;;;;;;;;7.20;99.90;;;;;;4991186;28;20020;-76
2023/12/22 12:22:03;;;;;;;;;;;7.20;99.90;;;;;;4991522;28;19913;-75
2023/12/22 12:24:30;;;;;;;;;;;7.20;99.90;;;;;;4987839;28;20360;-75
2023/12/22 12:26:56;;;;;;;;;;;7.30;99.90;;;;;;4991205;28;19913;-73
2023/12/22 12:29:22;;;;;;;;;;;7.20;99.90;;;;;;4988100;28;22298;-74
2023/12/22 12:31:47;;;;;;;;;;;7.30;99.90;;;;;;4988034;28;19925;-74
2023/12/22 12:34:14;;;;;;;;;;;7.30;99.90;;;;;;4989142;28;19979;-76
2023/12/22 12:36:42;;;;;;;;;;;7.30;99.90;;;;;;4991372;28;19924;-76
2023/12/22 12:39:08;;;;;;;;;;;7.30;99.90;;;;;;4992130;28;19921;-76
2023/12/22 12:41:36;;;;;;;;;;;7.30;99.90;;;;;;4992937;28;19932;-76
2023/12/22 12:44:08;;;;;;;;;;;7.30;99.90;;;;;;4991176;28;19928;-76
2023/12/22 12:46:42;;;;;;;;;;;7.30;99.90;;;;;;4997263;23;20068;-76
2023/12/22 12:49:08;;;;;;;;;;;7.30;99.90;;;;;;5008439;28;19948;-77
2023/12/22 12:51:38;;;;;;;;;;;7.20;99.90;;;;;;5012732;28;19909;-75
2023/12/22 12:54:04;;;;;;;;;;;7.30;99.90;;;;;;5009446;28;19952;-76
2023/12/22 12:56:35;;;;;;;;;;;7.40;99.90;;;;;;5013809;28;20479;-77
2023/12/22 12:59:01;;;;;;;;;;;7.30;99.90;;;;;;5009385;28;19916;-75
2023/12/22 13:01:26;;;;;;;;;;;7.30;99.90;;;;;;5008525;28;19962;-75
2023/12/22 13:03:56;;;;;;;;;;;7.40;99.90;;;;;;5001496;28;19916;-76
2023/12/22 13:06:22;;;;;;;;;;;7.40;99.90;;;;;;5007625;28;20844;-76
2023/12/22 13:08:51;;;;;;;;;;;7.40;99.90;;;;;;5011654;28;19916;-75
2023/12/22 13:11:21;;;;;;;;;;;7.40;99.90;;;;;;5009903;28;20726;-75
2023/12/22 13:13:46;;;;;;;;;;;7.40;99.90;;;;;;5003121;28;19917;-75
2023/12/22 13:16:12;;;;;;;;;;;7.40;99.90;;;;;;5004137;28;20310;-75
2023/12/22 13:18:38;;;;;;;;;;;7.40;99.90;;;;;;5007605;28;19936;-75
2023/12/22 13:21:03;;;;;;;;;;;7.40;99.90;;;;;;5010493;28;20460;-75
2023/12/22 13:23:29;;;;;;;;;;;7.40;99.90;;;;;;5010385;28;20264;-75
2023/12/22 13:25:56;;;;;;;;;;;7.40;99.90;;;;;;5009898;28;20390;-75
2023/12/22 13:28:30;;;;;;;;;;;7.40;99.90;;;;;;5006711;28;19917;-75
2023/12/22 13:30:56;;;;;;;;;;;7.40;99.90;;;;;;5004078;28;20425;-75
2023/12/22 13:33:22;;;;;;;;;;;7.40;99.90;;;;;;5005767;28;19921;-69
2023/12/22 13:35:49;;;;;;;;;;;7.40;99.90;;;;;;5005647;28;19952;-75
2023/12/22 13:38:18;;;;;;;;;;;7.50;99.90;;;;;;5008029;28;22568;-75
2023/12/22 13:40:46;;;;;;;;;;;7.40;99.90;;;;;;5008397;28;19983;-75
2023/12/22 13:43:12;;;;;;;;;;;7.50;99.90;;;;;;5008636;28;19990;-75
2023/12/22 13:45:37;;;;;;;;;;;7.40;99.90;;;;;;5008242;28;21373;-75
2023/12/22 13:48:03;;;;;;;;;;;7.40;99.90;;;;;;5006833;28;20434;-75